createdAt,value
2019-02-10T00:01:19.241Z,9.73
2019-02-10T00:03:49.591Z,7.93
2019-02-10T00:06:24.454Z,12.03
2019-02-10T00:08:47.294Z,14.13
2019-02-10T00:11:15.490Z,16.30
2019-02-10T00:13:43.722Z,13.83
2019-02-10T00:16:13.489Z,11.33
2019-02-10T00:18:41.709Z,14.40
2019-02-10T00:21:09.906Z,13.90
2019-02-10T00:23:41.067Z,13.43
2019-02-10T00:26:19.598Z,11.43
2019-02-10T00:28:39.226Z,13.77
2019-02-10T00:31:07.442Z,15.77
2019-02-10T00:33:35.730Z,17.97
2019-02-10T00:36:06.668Z,14.40
2019-02-10T00:38:34.938Z,11.83
2019-02-10T00:41:03.159Z,8.17
2019-02-10T00:43:31.412Z,10.37
2019-02-10T00:45:59.589Z,12.35
2019-02-10T00:48:27.830Z,16.93
2019-02-10T00:50:55.983Z,20.10
2019-02-10T00:53:24.149Z,15.40
2019-02-10T00:55:54.025Z,15.50
2019-02-10T00:58:22.301Z,13.73
2019-02-10T01:00:50.567Z,16.30
2019-02-10T01:03:19.644Z,10.00
2019-02-10T01:05:47.807Z,15.57
2019-02-10T01:08:15.974Z,9.00
2019-02-10T01:10:44.135Z,12.27
2019-02-10T01:13:13.970Z,14.73
2019-02-10T01:15:43.221Z,13.20
2019-02-10T01:18:14.856Z,23.63
2019-02-10T01:20:41.384Z,13.23
2019-02-10T01:25:39.703Z,12.30
2019-02-10T01:28:07.956Z,14.50
2019-02-10T01:30:36.686Z,12.18
2019-02-10T01:33:04.987Z,13.63
2019-02-10T01:35:33.711Z,18.87
2019-02-10T01:38:01.880Z,12.03
2019-02-10T01:40:30.031Z,9.87
2019-02-10T01:42:58.224Z,12.07
2019-02-10T01:45:28.028Z,13.50
2019-02-10T01:48:06.561Z,13.83
2019-02-10T01:50:26.235Z,15.90
2019-02-10T01:52:54.424Z,16.23
2019-02-10T01:55:23.180Z,12.47
2019-02-10T01:57:51.348Z,20.13
2019-02-10T02:00:19.557Z,10.83
2019-02-10T02:02:47.757Z,13.28
2019-02-10T02:05:17.472Z,16.60
2019-02-10T02:07:45.652Z,13.37
2019-02-10T02:10:14.602Z,11.85
2019-02-10T02:12:42.719Z,18.97
2019-02-10T02:15:16.080Z,8.80
2019-02-10T02:17:44.215Z,17.37
2019-02-10T02:20:12.793Z,15.00
2019-02-10T02:22:40.895Z,13.30
2019-02-10T02:25:09.692Z,8.27
2019-02-10T02:27:37.964Z,21.10
2019-02-10T02:30:13.275Z,18.23
2019-02-10T02:32:41.448Z,19.82
2019-02-10T02:35:09.746Z,16.50
2019-02-10T02:37:40.787Z,16.13
2019-02-10T02:40:10.822Z,18.93
2019-02-10T02:42:39.923Z,18.43
2019-02-10T02:45:09.198Z,14.10
2019-02-10T02:47:37.432Z,21.07
2019-02-10T02:50:08.583Z,13.80
2019-02-10T02:52:36.522Z,15.40
2019-02-10T02:55:05.640Z,18.30
2019-02-10T02:57:37.543Z,12.40
2019-02-10T03:00:07.051Z,16.30
2019-02-10T03:02:35.281Z,9.13
2019-02-10T03:05:04.911Z,20.03
2019-02-10T03:07:36.007Z,10.73
2019-02-10T03:10:05.428Z,15.75
2019-02-10T03:12:33.536Z,16.63
2019-02-10T03:15:01.667Z,11.00
2019-02-10T03:17:29.840Z,11.07
2019-02-10T03:19:57.945Z,14.60
2019-02-10T03:22:26.073Z,11.78
2019-02-10T03:24:54.177Z,16.50
2019-02-10T03:27:22.319Z,8.90
2019-02-10T03:29:50.562Z,8.77
2019-02-10T03:32:18.748Z,9.43
2019-02-10T03:34:46.912Z,7.00
2019-02-10T03:37:16.689Z,10.30
2019-02-10T03:39:48.105Z,17.47
2019-02-10T03:42:16.385Z,13.03
2019-02-10T03:44:44.682Z,15.27
2019-02-10T03:47:12.899Z,14.33
2019-02-10T03:49:41.690Z,17.27
2019-02-10T03:52:09.911Z,17.17
2019-02-10T03:54:38.108Z,13.68
2019-02-10T03:57:06.228Z,13.43
2019-02-10T03:59:34.445Z,15.73
2019-02-10T04:02:05.283Z,14.20
2019-02-10T04:04:33.420Z,30.43
2019-02-10T04:07:02.260Z,15.88
2019-02-10T04:09:32.020Z,13.90
2019-02-10T04:12:00.208Z,18.50
2019-02-10T04:14:28.395Z,11.53
2019-02-10T04:16:56.550Z,18.17
2019-02-10T04:19:24.692Z,15.13
2019-02-10T04:21:52.822Z,9.33
2019-02-10T04:24:20.921Z,11.97
2019-02-10T04:26:49.029Z,14.37
2019-02-10T04:29:17.123Z,14.23
2019-02-10T04:31:45.241Z,17.37
2019-02-10T04:34:13.476Z,14.77
2019-02-10T04:36:41.640Z,11.07
2019-02-10T04:39:09.758Z,7.93
2019-02-10T04:41:37.896Z,15.43
2019-02-10T04:44:06.067Z,13.63
2019-02-10T04:46:35.830Z,9.83
2019-02-10T04:49:03.963Z,18.23
2019-02-10T04:51:32.812Z,6.87
2019-02-10T04:54:00.999Z,8.00
2019-02-10T04:56:29.220Z,11.83
2019-02-10T04:58:57.358Z,13.00
2019-02-10T05:01:25.466Z,7.60
2019-02-10T05:03:53.626Z,8.40
2019-02-10T05:06:23.557Z,11.50
2019-02-10T05:08:51.728Z,10.40
2019-02-10T05:11:19.833Z,5.72
2019-02-10T05:13:47.959Z,17.67
2019-02-10T05:16:17.711Z,7.27
2019-02-10T05:18:45.886Z,11.67
2019-02-10T05:21:13.988Z,13.13
2019-02-10T05:23:42.123Z,7.57
2019-02-10T05:26:10.318Z,7.97
2019-02-10T05:28:41.186Z,8.58
2019-02-10T05:31:09.280Z,10.80
2019-02-10T05:33:37.481Z,8.53
2019-02-10T05:36:05.615Z,5.33
2019-02-10T05:38:33.752Z,6.73
2019-02-10T05:41:01.874Z,6.93
2019-02-10T05:43:30.151Z,7.97
2019-02-10T05:45:58.304Z,7.40
2019-02-10T05:48:29.314Z,7.97
2019-02-10T05:50:57.423Z,9.47
2019-02-10T05:53:25.617Z,4.53
2019-02-10T05:55:55.428Z,4.12
2019-02-10T05:58:23.632Z,7.63
2019-02-10T06:00:51.798Z,11.70
2019-02-10T06:03:19.976Z,4.70
2019-02-10T06:05:48.092Z,3.17
2019-02-10T06:08:17.483Z,5.37
2019-02-10T06:10:45.660Z,7.62
2019-02-10T06:13:13.854Z,7.83
2019-02-10T06:15:42.003Z,3.30
2019-02-10T06:18:10.133Z,4.42
2019-02-10T06:20:38.300Z,8.17
2019-02-10T06:23:06.561Z,8.15
2019-02-10T06:25:34.849Z,5.63
2019-02-10T06:28:04.359Z,4.67
2019-02-10T06:30:32.532Z,3.77
2019-02-10T06:33:00.891Z,2.80
2019-02-10T06:35:29.104Z,5.07
2019-02-10T06:37:58.464Z,3.53
2019-02-10T06:40:26.686Z,5.10
2019-02-10T06:42:54.851Z,2.80
2019-02-10T06:45:25.701Z,4.25
2019-02-10T06:47:55.345Z,5.70
2019-02-10T06:50:23.539Z,4.47
2019-02-10T06:52:51.700Z,3.13
2019-02-10T06:55:19.917Z,2.27
2019-02-10T06:57:48.025Z,3.27
2019-02-10T07:00:33.230Z,5.13
2019-02-10T07:03:10.323Z,5.10
2019-02-10T07:05:38.511Z,3.70
2019-02-10T07:08:08.089Z,4.80
2019-02-10T07:10:36.249Z,5.63
2019-02-10T07:13:04.488Z,4.87
2019-02-10T07:15:50.730Z,2.80
2019-02-10T07:18:37.502Z,6.17
2019-02-10T07:21:05.671Z,4.83
2019-02-10T07:23:52.184Z,3.20
2019-02-10T07:26:23.122Z,2.07
2019-02-10T07:28:51.875Z,3.07
2019-02-10T07:31:24.357Z,2.30
2019-02-10T07:33:53.184Z,3.83
2019-02-10T07:36:22.887Z,2.33
2019-02-10T07:39:07.566Z,3.73
2019-02-10T07:41:37.229Z,1.93
2019-02-10T07:44:11.429Z,3.00
2019-02-10T07:46:47.408Z,2.83
2019-02-10T07:49:36.445Z,1.93
2019-02-10T07:52:06.241Z,1.40
2019-02-10T07:54:42.141Z,1.63
2019-02-10T07:57:07.314Z,2.23
2019-02-10T07:59:39.686Z,1.77
2019-02-10T08:02:33.729Z,1.90
2019-02-10T08:05:00.787Z,3.37
2019-02-10T08:07:32.963Z,1.20
2019-02-10T08:10:02.732Z,1.90
2019-02-10T08:12:51.008Z,2.62
2019-02-10T08:15:23.138Z,1.57
2019-02-10T08:17:53.634Z,3.93
2019-02-10T08:20:43.397Z,2.30
2019-02-10T08:23:16.100Z,1.67
2019-02-10T08:25:51.737Z,4.37
2019-02-10T08:28:21.474Z,2.17
2019-02-10T08:30:55.840Z,2.47
2019-02-10T08:33:25.562Z,3.70
2019-02-10T08:36:04.273Z,1.70
2019-02-10T08:38:38.240Z,1.27
2019-02-10T08:41:24.798Z,0.90
2019-02-10T08:43:57.146Z,1.30
2019-02-10T08:46:26.937Z,1.00
2019-02-10T08:48:59.677Z,1.43
2019-02-10T08:51:38.278Z,2.20
2019-02-10T08:54:08.325Z,1.43
2019-02-10T08:56:36.717Z,1.97
2019-02-10T08:59:06.077Z,1.02
2019-02-10T09:01:46.417Z,0.70
2019-02-10T09:04:16.646Z,1.00
2019-02-10T09:06:45.279Z,1.73
2019-02-10T09:09:13.675Z,1.13
2019-02-10T09:11:41.940Z,0.90
2019-02-10T09:14:10.232Z,1.00
2019-02-10T09:16:38.509Z,0.90
2019-02-10T09:19:06.885Z,1.60
2019-02-10T09:21:36.095Z,1.50
2019-02-10T09:24:23.831Z,1.67
2019-02-10T09:26:52.656Z,1.00
2019-02-10T09:29:22.276Z,1.13
2019-02-10T09:31:50.761Z,3.17
2019-02-10T09:34:19.233Z,2.40
2019-02-10T09:36:50.161Z,2.30
2019-02-10T09:39:25.324Z,1.73
2019-02-10T09:41:53.851Z,2.50
2019-02-10T09:44:22.980Z,1.53
2019-02-10T09:46:51.164Z,2.30
2019-02-10T09:49:19.281Z,2.40
2019-02-10T09:51:47.444Z,3.23
2019-02-10T09:54:22.024Z,2.50
2019-02-10T09:56:47.741Z,3.93
2019-02-10T09:59:16.052Z,2.12
2019-02-10T10:01:47.123Z,2.80
2019-02-10T10:04:21.220Z,2.10
2019-02-10T10:06:49.446Z,3.87
2019-02-10T10:09:19.454Z,4.60
2019-02-10T10:11:47.954Z,6.40
2019-02-10T10:14:19.722Z,5.23
2019-02-10T10:16:48.077Z,6.83
2019-02-10T10:19:16.226Z,8.37
2019-02-10T10:21:44.447Z,5.20
2019-02-10T10:24:12.714Z,3.30
2019-02-10T10:26:48.894Z,3.45
2019-02-10T10:29:14.392Z,1.23
2019-02-10T10:31:42.693Z,2.60
2019-02-10T10:34:13.636Z,2.30
2019-02-10T10:36:41.921Z,0.77
2019-02-10T10:39:10.193Z,8.73
2019-02-10T10:41:38.892Z,3.40
2019-02-10T10:44:07.110Z,1.77
2019-02-10T10:46:35.360Z,4.27
2019-02-10T10:49:06.186Z,4.47
2019-02-10T10:51:39.346Z,4.93
2019-02-10T10:54:11.332Z,3.35
2019-02-10T10:56:39.436Z,5.60
2019-02-10T10:59:10.083Z,2.00
2019-02-10T11:01:38.311Z,2.27
2019-02-10T11:04:06.435Z,1.77
2019-02-10T11:06:34.573Z,2.13
2019-02-10T11:09:02.832Z,3.30
2019-02-10T11:11:30.996Z,5.90
2019-02-10T11:13:59.161Z,8.63
2019-02-10T11:16:29.046Z,5.60
2019-02-10T11:19:21.748Z,6.90
2019-02-10T11:21:49.979Z,5.35
2019-02-10T11:24:18.117Z,6.80
2019-02-10T11:26:46.221Z,4.30
2019-02-10T11:29:14.344Z,2.60
2019-02-10T11:31:49.737Z,2.73
2019-02-10T11:34:21.891Z,1.20
2019-02-10T11:36:50.089Z,1.40
2019-02-10T11:39:18.330Z,2.80
2019-02-10T11:41:46.450Z,2.87
2019-02-10T11:44:14.605Z,1.23
2019-02-10T11:46:42.769Z,1.33
2019-02-10T11:49:10.932Z,2.22
2019-02-10T11:51:39.046Z,2.13
2019-02-10T11:54:11.287Z,2.10
2019-02-10T11:56:37.308Z,1.77
2019-02-10T11:59:05.522Z,1.73
2019-02-10T12:01:34.844Z,1.50
2019-02-10T12:04:03.109Z,3.30
2019-02-10T12:06:31.285Z,4.27
2019-02-10T12:08:59.492Z,1.60
2019-02-10T12:11:29.601Z,1.95
2019-02-10T12:13:57.492Z,2.03
2019-02-10T12:16:25.735Z,2.52
2019-02-10T12:18:53.984Z,1.30
2019-02-10T12:21:26.653Z,2.40
2019-02-10T12:23:54.914Z,5.20
2019-02-10T12:26:27.533Z,2.63
2019-02-10T12:28:57.432Z,3.53
2019-02-10T12:31:25.702Z,1.63
2019-02-10T12:33:53.862Z,1.53
2019-02-10T12:36:22.126Z,1.40
2019-02-10T12:38:50.248Z,1.83
2019-02-10T12:41:18.414Z,1.40
2019-02-10T12:43:51.321Z,3.45
2019-02-10T12:46:19.535Z,1.23
2019-02-10T12:48:48.289Z,3.62
2019-02-10T12:51:20.058Z,2.52
2019-02-10T12:53:48.328Z,3.07
2019-02-10T12:56:16.551Z,1.73
2019-02-10T12:58:46.112Z,1.30
2019-02-10T13:01:14.315Z,1.47
2019-02-10T13:03:42.435Z,1.25
2019-02-10T13:06:11.532Z,3.47
2019-02-10T13:08:39.677Z,1.57
2019-02-10T13:11:07.855Z,1.70
2019-02-10T13:13:36.123Z,2.63
2019-02-10T13:16:10.334Z,1.42
2019-02-10T13:18:38.557Z,2.30
2019-02-10T13:21:06.767Z,2.27
2019-02-10T13:23:34.980Z,2.95
2019-02-10T13:26:04.914Z,2.30
2019-02-10T13:28:33.140Z,1.75
2019-02-10T13:31:01.287Z,1.97
2019-02-10T13:33:30.103Z,1.62
2019-02-10T13:36:01.162Z,1.43
2019-02-10T13:38:32.648Z,1.83
2019-02-10T13:41:00.772Z,2.53
2019-02-10T13:44:06.609Z,3.27
2019-02-10T13:46:54.541Z,3.03
2019-02-10T13:49:22.829Z,3.08
2019-02-10T13:51:51.028Z,3.17
2019-02-10T13:54:19.148Z,3.97
2019-02-10T13:56:48.839Z,3.93
2019-02-10T13:59:17.066Z,3.30
2019-02-10T14:01:45.239Z,4.53
2019-02-10T14:04:13.369Z,3.13
2019-02-10T14:06:43.062Z,2.70
2019-02-10T14:09:11.249Z,3.20
2019-02-10T14:11:39.396Z,4.40
2019-02-10T14:14:07.566Z,2.90
2019-02-10T14:16:37.372Z,2.50
2019-02-10T14:19:05.576Z,2.50
2019-02-10T14:21:33.714Z,6.20
2019-02-10T14:24:04.994Z,3.83
2019-02-10T14:26:34.695Z,3.37
2019-02-10T14:29:04.950Z,4.20
2019-02-10T14:31:33.190Z,2.95
2019-02-10T14:34:01.356Z,5.40
2019-02-10T14:36:40.224Z,2.58
2019-02-10T14:39:08.380Z,3.17
2019-02-10T14:41:36.568Z,3.10
2019-02-10T14:44:10.781Z,4.17
2019-02-10T14:46:40.856Z,3.13
2019-02-10T14:49:09.112Z,2.73
2019-02-10T14:51:37.335Z,3.07
2019-02-10T14:54:09.640Z,3.10
2019-02-10T14:56:37.936Z,3.07
2019-02-10T14:59:06.167Z,1.53
2019-02-10T15:01:34.580Z,2.47
2019-02-10T15:04:05.018Z,6.00
2019-02-10T15:06:33.176Z,5.27
2019-02-10T15:09:01.316Z,6.23
2019-02-10T15:11:29.712Z,4.93
2019-02-10T15:13:57.899Z,2.00
2019-02-10T15:16:35.306Z,3.13
2019-02-10T15:18:58.613Z,4.10
2019-02-10T15:21:26.858Z,2.40
2019-02-10T15:24:14.049Z,2.77
2019-02-10T15:26:36.037Z,5.90
2019-02-10T15:28:59.729Z,1.23
2019-02-10T15:31:27.854Z,1.50
2019-02-10T15:33:55.973Z,4.47
2019-02-10T15:36:24.156Z,4.43
2019-02-10T15:38:52.330Z,4.00
2019-02-10T15:41:25.415Z,3.15
2019-02-10T15:43:53.598Z,3.17
2019-02-10T15:46:21.933Z,4.37
2019-02-10T15:48:50.074Z,3.97
2019-02-10T15:51:19.067Z,4.05
2019-02-10T15:53:47.294Z,3.50
2019-02-10T15:56:15.424Z,2.37
2019-02-10T15:58:43.541Z,4.85
2019-02-10T16:01:14.325Z,2.03
2019-02-10T16:03:42.883Z,3.53
2019-02-10T16:06:11.015Z,2.10
2019-02-10T16:08:39.215Z,3.27
2019-02-10T16:11:07.417Z,2.17
2019-02-10T16:13:35.748Z,1.57
2019-02-10T16:16:03.835Z,5.57
2019-02-10T16:18:31.995Z,3.20
2019-02-10T16:21:00.178Z,2.23
2019-02-10T16:23:30.088Z,3.37
2019-02-10T16:25:58.252Z,3.20
2019-02-10T16:28:26.459Z,7.60
2019-02-10T16:30:55.350Z,10.20
2019-02-10T16:33:23.596Z,8.90
2019-02-10T16:35:51.771Z,8.20
2019-02-10T16:38:19.967Z,6.03
2019-02-10T16:40:48.130Z,4.40
2019-02-10T16:43:17.850Z,3.60
2019-02-10T16:45:48.026Z,4.03
2019-02-10T16:48:15.934Z,3.37
2019-02-10T16:50:47.319Z,3.53
2019-02-10T16:53:26.280Z,3.97
2019-02-10T16:55:45.550Z,3.37
2019-02-10T16:58:13.767Z,6.00
2019-02-10T17:00:42.037Z,6.87
2019-02-10T17:03:11.764Z,14.07
2019-02-10T17:06:07.974Z,8.15
2019-02-10T17:08:33.731Z,7.67
2019-02-10T17:11:01.952Z,7.80
2019-02-10T17:13:30.120Z,7.57
2019-02-10T17:16:04.950Z,7.63
2019-02-10T17:18:33.212Z,7.40
2019-02-10T17:21:06.141Z,13.00
2019-02-10T17:23:34.421Z,9.90
2019-02-10T17:26:02.620Z,12.33
2019-02-10T17:28:31.789Z,12.90
2019-02-10T17:30:59.959Z,14.57
2019-02-10T17:33:28.083Z,30.30
2019-02-10T17:35:56.227Z,25.57
2019-02-10T17:38:27.147Z,21.33
2019-02-10T17:40:59.413Z,21.33
2019-02-10T17:43:28.529Z,11.93
2019-02-10T17:45:56.955Z,6.63
2019-02-10T17:48:25.161Z,9.20
2019-02-10T17:50:53.362Z,13.17
2019-02-10T17:53:21.600Z,17.77
2019-02-10T17:55:49.792Z,11.23
2019-02-10T17:58:17.977Z,10.83
2019-02-10T18:00:48.003Z,5.97
2019-02-10T18:03:18.472Z,6.00
2019-02-10T18:05:46.804Z,11.90
2019-02-10T18:08:14.932Z,8.17
2019-02-10T18:10:43.194Z,9.13
2019-02-10T18:13:11.306Z,9.67
2019-02-10T18:15:56.338Z,9.33
2019-02-10T18:18:38.557Z,10.40
2019-02-10T18:21:25.021Z,8.17
2019-02-10T18:24:14.556Z,7.70
2019-02-10T18:27:00.973Z,8.83
2019-02-10T18:29:36.623Z,7.43
2019-02-10T18:32:07.958Z,7.83
2019-02-10T18:34:40.614Z,7.63
2019-02-10T18:37:25.851Z,8.83
2019-02-10T18:40:05.892Z,8.43
2019-02-10T18:42:43.086Z,4.63
2019-02-10T18:45:12.026Z,3.93
2019-02-10T18:47:57.025Z,4.27
2019-02-10T18:50:43.223Z,3.43
2019-02-10T18:53:26.667Z,5.35
2019-02-10T18:56:09.888Z,4.53
2019-02-10T18:59:32.982Z,3.97
2019-02-10T19:01:46.682Z,3.83
2019-02-10T19:04:08.328Z,3.87
2019-02-10T19:06:38.151Z,5.47
2019-02-10T19:09:16.724Z,4.23
2019-02-10T19:11:47.514Z,4.40
2019-02-10T19:14:22.935Z,5.03
2019-02-10T19:16:52.684Z,4.97
2019-02-10T19:19:25.353Z,5.50
2019-02-10T19:22:01.095Z,4.95
2019-02-10T19:24:47.568Z,7.33
2019-02-10T19:27:24.111Z,7.33
2019-02-10T19:30:09.207Z,12.90
2019-02-10T19:32:42.227Z,6.95
2019-02-10T19:35:12.148Z,6.37
2019-02-10T19:37:45.267Z,5.80
2019-02-10T19:43:18.068Z,4.37
2019-02-10T19:46:04.216Z,3.47
2019-02-10T19:48:36.905Z,6.40
2019-02-10T19:51:10.549Z,6.30
2019-02-10T19:53:58.736Z,6.87
2019-02-10T19:56:28.782Z,8.77
2019-02-10T19:59:02.135Z,9.83
2019-02-10T20:01:31.928Z,9.07
2019-02-10T20:04:18.827Z,9.97
2019-02-10T20:06:50.678Z,9.10
2019-02-10T20:09:24.996Z,10.90
2019-02-10T20:12:04.483Z,11.83
2019-02-10T20:14:37.132Z,12.67
2019-02-10T20:17:06.977Z,13.10
2019-02-10T20:19:38.330Z,10.40
2019-02-10T20:22:20.024Z,10.37
2019-02-10T20:25:06.193Z,12.47
2019-02-10T20:27:46.694Z,11.73
2019-02-10T20:30:22.088Z,8.60
2019-02-10T20:33:06.769Z,8.37
2019-02-10T20:35:51.776Z,9.20
2019-02-10T20:38:24.462Z,7.20
2019-02-10T20:40:54.272Z,9.37
2019-02-10T20:43:40.448Z,6.63
2019-02-10T20:46:13.007Z,8.07
2019-02-10T20:48:58.069Z,6.10
2019-02-10T20:51:44.237Z,5.47
2019-02-10T20:54:14.026Z,5.87
2019-02-10T20:56:52.929Z,4.83
2019-02-10T20:59:28.451Z,2.80
2019-02-10T21:02:06.434Z,3.35
2019-02-10T21:04:43.601Z,3.07
2019-02-10T21:07:20.517Z,2.10
2019-02-10T21:09:53.340Z,2.77
2019-02-10T21:12:26.165Z,3.08
2019-02-10T21:15:11.351Z,3.30
2019-02-10T21:17:44.033Z,3.10
2019-02-10T21:20:22.917Z,3.20
2019-02-10T21:22:55.735Z,1.97
2019-02-10T21:25:31.548Z,2.33
2019-02-10T21:28:04.580Z,2.30
2019-02-10T21:30:51.206Z,3.23
2019-02-10T21:33:23.660Z,1.97
2019-02-10T21:35:53.574Z,2.03
2019-02-10T21:38:42.109Z,1.70
2019-02-10T21:41:13.587Z,2.40
2019-02-10T21:43:43.419Z,2.50
2019-02-10T21:46:34.421Z,2.33
2019-02-10T21:49:06.446Z,2.20
2019-02-10T21:51:36.998Z,3.57
2019-02-10T21:54:05.219Z,3.50
2019-02-10T21:56:33.307Z,4.13
2019-02-10T21:59:01.430Z,3.85
2019-02-10T22:01:31.839Z,4.20
2019-02-10T22:04:07.246Z,4.55
2019-02-10T22:06:35.520Z,4.60
2019-02-10T22:09:04.795Z,5.22
2019-02-10T22:11:32.975Z,5.83
2019-02-10T22:14:01.706Z,4.62
2019-02-10T22:16:31.065Z,4.50
2019-02-10T22:18:59.358Z,3.97
2019-02-10T22:21:29.147Z,4.33
2019-02-10T22:23:57.273Z,4.67
2019-02-10T22:26:25.417Z,3.30
2019-02-10T22:28:53.543Z,4.00
2019-02-10T22:31:21.654Z,3.90
2019-02-10T22:33:51.850Z,5.43
2019-02-10T22:36:23.267Z,4.53
2019-02-10T22:38:51.745Z,5.42
2019-02-10T22:41:19.902Z,4.33
2019-02-10T22:43:48.004Z,5.08
2019-02-10T22:46:16.151Z,5.30
2019-02-10T22:49:14.024Z,5.50
2019-02-10T22:51:21.310Z,7.50
2019-02-10T22:53:49.480Z,3.67
2019-02-10T22:56:17.593Z,6.63
2019-02-10T22:58:45.709Z,7.03
2019-02-10T23:01:16.977Z,3.93
2019-02-10T23:03:50.408Z,4.00
2019-02-10T23:06:18.746Z,4.13
2019-02-10T23:08:46.860Z,3.67
2019-02-10T23:11:15.066Z,3.30
2019-02-10T23:13:43.222Z,3.73
2019-02-10T23:16:11.353Z,4.17
2019-02-10T23:18:39.482Z,2.27
2019-02-10T23:21:07.583Z,3.05
2019-02-10T23:23:35.823Z,2.73
2019-02-10T23:26:03.948Z,3.95
2019-02-10T23:28:32.100Z,2.60
2019-02-10T23:31:00.237Z,2.77
2019-02-10T23:33:28.375Z,4.83
2019-02-10T23:35:56.528Z,5.63
2019-02-10T23:38:25.542Z,6.23
2019-02-10T23:40:55.918Z,7.83
2019-02-10T23:43:26.220Z,5.17
2019-02-10T23:45:54.013Z,5.87
2019-02-10T23:48:22.856Z,7.27
2019-02-10T23:50:50.961Z,6.00
2019-02-10T23:53:19.100Z,7.30
2019-02-10T23:55:47.285Z,7.55
2019-02-10T23:58:15.397Z,9.70
